sensor_id;sensor_type;location;lat;lon;timestamp;temperature;humidity
14475;DHT22;7323;50.848;4.334;2023-12-22T00:01:42;11.10;52.00
14475;DHT22;7323;50.848;4.334;2023-12-22T00:04:08;11.00;62.60
14475;DHT22;7323;50.848;4.334;2023-12-22T00:06:34;11.00;59.30
14475;DHT22;7323;50.848;4.334;2023-12-22T00:09:00;11.00;57.40
14475;DHT22;7323;50.848;4.334;2023-12-22T00:11:25;11.00;53.40
14475;DHT22;7323;50.848;4.334;2023-12-22T00:13:51;11.10;48.20
14475;DHT22;7323;50.848;4.334;2023-12-22T00:16:17;11.10;49.20
14475;DHT22;7323;50.848;4.334;2023-12-22T00:18:42;11.10;46.20
14475;DHT22;7323;50.848;4.334;2023-12-22T00:21:11;11.00;49.20
14475;DHT22;7323;50.848;4.334;2023-12-22T00:23:37;11.00;53.10
14475;DHT22;7323;50.848;4.334;2023-12-22T00:26:04;10.90;62.90
14475;DHT22;7323;50.848;4.334;2023-12-22T00:28:30;10.70;78.50
14475;DHT22;7323;50.848;4.334;2023-12-22T00:30:58;10.50;79.70
14475;DHT22;7323;50.848;4.334;2023-12-22T00:33:24;10.30;82.80
14475;DHT22;7323;50.848;4.334;2023-12-22T00:35:51;10.30;88.10
14475;DHT22;7323;50.848;4.334;2023-12-22T00:38:17;10.30;90.10
14475;DHT22;7323;50.848;4.334;2023-12-22T00:40:42;10.30;91.30
14475;DHT22;7323;50.848;4.334;2023-12-22T00:43:08;10.20;93.70
14475;DHT22;7323;50.848;4.334;2023-12-22T00:45:33;10.20;94.70
14475;DHT22;7323;50.848;4.334;2023-12-22T00:47:59;10.10;96.40
14475;DHT22;7323;50.848;4.334;2023-12-22T00:50:25;10.10;97.70
14475;DHT22;7323;50.848;4.334;2023-12-22T00:52:51;10.10;99.40
14475;DHT22;7323;50.848;4.334;2023-12-22T00:55:16;10.00;95.90
14475;DHT22;7323;50.848;4.334;2023-12-22T00:57:42;10.00;97.40
14475;DHT22;7323;50.848;4.334;2023-12-22T01:00:08;10.00;97.90
14475;DHT22;7323;50.848;4.334;2023-12-22T01:02:38;9.90;99.30
14475;DHT22;7323;50.848;4.334;2023-12-22T01:05:04;9.80;99.90
14475;DHT22;7323;50.848;4.334;2023-12-22T01:07:33;9.90;99.90
14475;DHT22;7323;50.848;4.334;2023-12-22T01:10:01;10.00;98.60
14475;DHT22;7323;50.848;4.334;2023-12-22T01:12:29;10.00;96.80
14475;DHT22;7323;50.848;4.334;2023-12-22T01:14:56;10.00;94.80
14475;DHT22;7323;50.848;4.334;2023-12-22T01:17:21;10.10;93.40
14475;DHT22;7323;50.848;4.334;2023-12-22T01:19:47;10.20;91.50
14475;DHT22;7323;50.848;4.334;2023-12-22T01:22:13;10.20;90.40
14475;DHT22;7323;50.848;4.334;2023-12-22T01:24:39;10.20;86.00
14475;DHT22;7323;50.848;4.334;2023-12-22T01:27:08;10.30;83.90
14475;DHT22;7323;50.848;4.334;2023-12-22T01:29:34;10.30;80.30
14475;DHT22;7323;50.848;4.334;2023-12-22T01:32:00;10.30;76.90
14475;DHT22;7323;50.848;4.334;2023-12-22T01:34:26;10.40;71.80
14475;DHT22;7323;50.848;4.334;2023-12-22T01:36:51;10.50;71.10
14475;DHT22;7323;50.848;4.334;2023-12-22T01:39:17;10.50;72.20
14475;DHT22;7323;50.848;4.334;2023-12-22T01:41:43;10.50;71.30
14475;DHT22;7323;50.848;4.334;2023-12-22T01:44:08;10.50;71.70
14475;DHT22;7323;50.848;4.334;2023-12-22T01:46:35;10.50;70.90
14475;DHT22;7323;50.848;4.334;2023-12-22T01:49:01;10.50;70.70
14475;DHT22;7323;50.848;4.334;2023-12-22T01:51:32;10.50;72.00
14475;DHT22;7323;50.848;4.334;2023-12-22T01:53:59;10.50;73.20
14475;DHT22;7323;50.848;4.334;2023-12-22T01:56:25;10.60;73.10
14475;DHT22;7323;50.848;4.334;2023-12-22T01:58:58;10.50;75.40
14475;DHT22;7323;50.848;4.334;2023-12-22T02:01:24;10.50;78.20
14475;DHT22;7323;50.848;4.334;2023-12-22T02:03:51;10.40;81.40
14475;DHT22;7323;50.848;4.334;2023-12-22T02:06:18;10.40;84.10
14475;DHT22;7323;50.848;4.334;2023-12-22T02:08:46;10.30;86.30
14475;DHT22;7323;50.848;4.334;2023-12-22T02:11:13;10.30;87.70
14475;DHT22;7323;50.848;4.334;2023-12-22T02:13:39;10.30;89.10
14475;DHT22;7323;50.848;4.334;2023-12-22T02:16:14;10.30;87.60
14475;DHT22;7323;50.848;4.334;2023-12-22T02:18:43;10.40;87.80
14475;DHT22;7323;50.848;4.334;2023-12-22T02:21:11;10.30;84.30
14475;DHT22;7323;50.848;4.334;2023-12-22T02:23:36;10.30;77.00
14475;DHT22;7323;50.848;4.334;2023-12-22T02:26:10;10.30;77.80
14475;DHT22;7323;50.848;4.334;2023-12-22T02:28:39;10.40;73.30
14475;DHT22;7323;50.848;4.334;2023-12-22T02:31:09;10.40;68.50
14475;DHT22;7323;50.848;4.334;2023-12-22T02:33:41;10.40;65.30
14475;DHT22;7323;50.848;4.334;2023-12-22T02:36:09;10.40;56.40
14475;DHT22;7323;50.848;4.334;2023-12-22T02:38:36;10.40;54.20
14475;DHT22;7323;50.848;4.334;2023-12-22T02:41:05;10.40;51.70
14475;DHT22;7323;50.848;4.334;2023-12-22T02:43:34;10.40;48.70
14475;DHT22;7323;50.848;4.334;2023-12-22T02:46:01;10.40;44.00
14475;DHT22;7323;50.848;4.334;2023-12-22T02:48:26;10.40;45.50
14475;DHT22;7323;50.848;4.334;2023-12-22T02:50:52;10.40;43.60
14475;DHT22;7323;50.848;4.334;2023-12-22T02:53:18;10.40;45.60
14475;DHT22;7323;50.848;4.334;2023-12-22T02:55:43;10.40;47.60
14475;DHT22;7323;50.848;4.334;2023-12-22T02:58:09;10.30;47.10
14475;DHT22;7323;50.848;4.334;2023-12-22T03:00:36;10.30;48.80
14475;DHT22;7323;50.848;4.334;2023-12-22T03:03:01;10.30;49.00
14475;DHT22;7323;50.848;4.334;2023-12-22T03:05:27;10.40;51.00
14475;DHT22;7323;50.848;4.334;2023-12-22T03:07:53;10.40;52.50
14475;DHT22;7323;50.848;4.334;2023-12-22T03:10:18;10.40;55.00
14475;DHT22;7323;50.848;4.334;2023-12-22T03:12:44;10.40;58.80
14475;DHT22;7323;50.848;4.334;2023-12-22T03:15:10;10.40;65.50
14475;DHT22;7323;50.848;4.334;2023-12-22T03:17:36;10.30;72.10
14475;DHT22;7323;50.848;4.334;2023-12-22T03:20:02;10.30;76.30
14475;DHT22;7323;50.848;4.334;2023-12-22T03:22:28;10.20;83.90
14475;DHT22;7323;50.848;4.334;2023-12-22T03:24:53;10.10;90.90
14475;DHT22;7323;50.848;4.334;2023-12-22T03:27:19;10.10;92.50
14475;DHT22;7323;50.848;4.334;2023-12-22T03:29:45;10.10;94.80
14475;DHT22;7323;50.848;4.334;2023-12-22T03:32:11;10.00;96.10
14475;DHT22;7323;50.848;4.334;2023-12-22T03:34:37;10.00;96.90
14475;DHT22;7323;50.848;4.334;2023-12-22T03:37:03;10.00;97.50
14475;DHT22;7323;50.848;4.334;2023-12-22T03:39:28;10.00;98.10
14475;DHT22;7323;50.848;4.334;2023-12-22T03:41:54;9.90;98.00
14475;DHT22;7323;50.848;4.334;2023-12-22T03:44:19;9.90;99.70
14475;DHT22;7323;50.848;4.334;2023-12-22T03:46:45;9.90;99.80
14475;DHT22;7323;50.848;4.334;2023-12-22T03:49:11;9.80;99.10
14475;DHT22;7323;50.848;4.334;2023-12-22T03:51:36;9.80;99.50
14475;DHT22;7323;50.848;4.334;2023-12-22T03:54:03;9.90;99.80
14475;DHT22;7323;50.848;4.334;2023-12-22T03:56:28;9.90;99.70
14475;DHT22;7323;50.848;4.334;2023-12-22T03:58:55;9.90;99.90
14475;DHT22;7323;50.848;4.334;2023-12-22T04:01:21;9.90;99.90
14475;DHT22;7323;50.848;4.334;2023-12-22T04:03:46;9.90;99.90
14475;DHT22;7323;50.848;4.334;2023-12-22T04:06:12;9.80;99.90
14475;DHT22;7323;50.848;4.334;2023-12-22T04:08:39;9.80;99.90
14475;DHT22;7323;50.848;4.334;2023-12-22T04:11:05;9.80;99.90
14475;DHT22;7323;50.848;4.334;2023-12-22T04:13:30;9.70;99.90
14475;DHT22;7323;50.848;4.334;2023-12-22T04:15:56;9.70;99.90
14475;DHT22;7323;50.848;4.334;2023-12-22T04:18:22;9.70;99.90
14475;DHT22;7323;50.848;4.334;2023-12-22T04:20:48;9.60;99.90
14475;DHT22;7323;50.848;4.334;2023-12-22T04:23:17;9.50;99.90
14475;DHT22;7323;50.848;4.334;2023-12-22T04:25:42;9.50;99.90
14475;DHT22;7323;50.848;4.334;2023-12-22T04:28:08;9.50;99.90
14475;DHT22;7323;50.848;4.334;2023-12-22T04:30:33;9.40;99.90
14475;DHT22;7323;50.848;4.334;2023-12-22T04:32:59;9.40;99.90
14475;DHT22;7323;50.848;4.334;2023-12-22T04:35:25;9.30;99.90
14475;DHT22;7323;50.848;4.334;2023-12-22T04:37:53;9.40;99.90
14475;DHT22;7323;50.848;4.334;2023-12-22T04:40:18;9.30;99.90
14475;DHT22;7323;50.848;4.334;2023-12-22T04:42:45;9.40;99.90
14475;DHT22;7323;50.848;4.334;2023-12-22T04:45:10;9.40;99.90
14475;DHT22;7323;50.848;4.334;2023-12-22T04:47:36;9.40;99.90
14475;DHT22;7323;50.848;4.334;2023-12-22T04:50:03;9.40;99.90
14475;DHT22;7323;50.848;4.334;2023-12-22T04:52:29;9.40;99.90
14475;DHT22;7323;50.848;4.334;2023-12-22T04:54:55;9.40;99.90
14475;DHT22;7323;50.848;4.334;2023-12-22T04:57:21;9.40;99.90
14475;DHT22;7323;50.848;4.334;2023-12-22T04:59:47;9.40;99.90
14475;DHT22;7323;50.848;4.334;2023-12-22T05:02:13;9.40;99.90
14475;DHT22;7323;50.848;4.334;2023-12-22T05:04:39;9.40;99.90
14475;DHT22;7323;50.848;4.334;2023-12-22T05:07:04;9.50;99.90
14475;DHT22;7323;50.848;4.334;2023-12-22T05:09:36;9.60;99.90
14475;DHT22;7323;50.848;4.334;2023-12-22T05:12:03;9.60;99.90
14475;DHT22;7323;50.848;4.334;2023-12-22T05:14:28;9.60;99.90
14475;DHT22;7323;50.848;4.334;2023-12-22T05:16:54;9.60;99.90
14475;DHT22;7323;50.848;4.334;2023-12-22T05:19:21;9.70;99.90
14475;DHT22;7323;50.848;4.334;2023-12-22T05:21:47;9.80;99.90
14475;DHT22;7323;50.848;4.334;2023-12-22T05:24:14;9.90;99.90
14475;DHT22;7323;50.848;4.334;2023-12-22T05:26:40;9.90;99.90
14475;DHT22;7323;50.848;4.334;2023-12-22T05:29:06;10.00;99.90
14475;DHT22;7323;50.848;4.334;2023-12-22T05:31:33;10.00;99.90
14475;DHT22;7323;50.848;4.334;2023-12-22T05:34:00;10.10;99.90
14475;DHT22;7323;50.848;4.334;2023-12-22T05:36:25;10.10;99.90
14475;DHT22;7323;50.848;4.334;2023-12-22T05:38:51;10.20;99.90
14475;DHT22;7323;50.848;4.334;2023-12-22T05:41:17;10.20;99.90
14475;DHT22;7323;50.848;4.334;2023-12-22T05:43:42;10.30;99.90
14475;DHT22;7323;50.848;4.334;2023-12-22T05:46:08;10.30;99.90
14475;DHT22;7323;50.848;4.334;2023-12-22T05:48:35;10.30;99.90
14475;DHT22;7323;50.848;4.334;2023-12-22T05:51:01;10.30;99.90
14475;DHT22;7323;50.848;4.334;2023-12-22T05:53:33;10.30;99.90
14475;DHT22;7323;50.848;4.334;2023-12-22T05:55:59;10.30;99.90
14475;DHT22;7323;50.848;4.334;2023-12-22T05:58:24;10.40;99.90
14475;DHT22;7323;50.848;4.334;2023-12-22T06:00:50;10.30;99.90
14475;DHT22;7323;50.848;4.334;2023-12-22T06:03:19;10.30;99.90
14475;DHT22;7323;50.848;4.334;2023-12-22T06:05:44;10.30;99.90
14475;DHT22;7323;50.848;4.334;2023-12-22T06:08:10;10.40;99.90
14475;DHT22;7323;50.848;4.334;2023-12-22T06:10:35;10.40;99.90
14475;DHT22;7323;50.848;4.334;2023-12-22T06:13:01;10.30;99.90
14475;DHT22;7323;50.848;4.334;2023-12-22T06:15:29;10.40;99.90
14475;DHT22;7323;50.848;4.334;2023-12-22T06:17:55;10.30;99.90
14475;DHT22;7323;50.848;4.334;2023-12-22T06:20:21;10.40;99.90
14475;DHT22;7323;50.848;4.334;2023-12-22T06:22:47;10.40;99.90
14475;DHT22;7323;50.848;4.334;2023-12-22T06:25:12;10.40;99.90
14475;DHT22;7323;50.848;4.334;2023-12-22T06:27:38;10.40;99.90
14475;DHT22;7323;50.848;4.334;2023-12-22T06:30:05;10.40;99.90
14475;DHT22;7323;50.848;4.334;2023-12-22T06:32:31;10.40;99.90
14475;DHT22;7323;50.848;4.334;2023-12-22T06:34:58;10.40;99.90
14475;DHT22;7323;50.848;4.334;2023-12-22T06:37:26;10.40;99.90
14475;DHT22;7323;50.848;4.334;2023-12-22T06:39:51;10.40;99.90
14475;DHT22;7323;50.848;4.334;2023-12-22T06:42:17;10.40;99.90
14475;DHT22;7323;50.848;4.334;2023-12-22T06:44:42;10.40;99.90
14475;DHT22;7323;50.848;4.334;2023-12-22T06:47:11;10.40;99.90
14475;DHT22;7323;50.848;4.334;2023-12-22T06:49:37;10.40;99.90
14475;DHT22;7323;50.848;4.334;2023-12-22T06:52:03;10.40;99.90
14475;DHT22;7323;50.848;4.334;2023-12-22T06:54:28;10.40;99.90
14475;DHT22;7323;50.848;4.334;2023-12-22T06:56:54;10.40;99.90
14475;DHT22;7323;50.848;4.334;2023-12-22T06:59:20;10.40;99.90
14475;DHT22;7323;50.848;4.334;2023-12-22T07:01:46;10.30;99.90
14475;DHT22;7323;50.848;4.334;2023-12-22T07:04:11;10.40;99.90
14475;DHT22;7323;50.848;4.334;2023-12-22T07:06:37;10.40;99.90
14475;DHT22;7323;50.848;4.334;2023-12-22T07:11:38;10.30;99.90
14475;DHT22;7323;50.848;4.334;2023-12-22T07:14:04;10.30;99.90
14475;DHT22;7323;50.848;4.334;2023-12-22T07:16:30;10.30;99.90
14475;DHT22;7323;50.848;4.334;2023-12-22T07:18:55;10.30;99.90
14475;DHT22;7323;50.848;4.334;2023-12-22T07:21:21;10.40;99.90
14475;DHT22;7323;50.848;4.334;2023-12-22T07:23:47;10.40;99.90
14475;DHT22;7323;50.848;4.334;2023-12-22T07:26:12;10.40;99.90
14475;DHT22;7323;50.848;4.334;2023-12-22T07:28:38;10.40;99.90
14475;DHT22;7323;50.848;4.334;2023-12-22T07:31:04;10.50;99.90
14475;DHT22;7323;50.848;4.334;2023-12-22T07:33:31;10.50;99.90
14475;DHT22;7323;50.848;4.334;2023-12-22T07:35:57;10.50;99.90
14475;DHT22;7323;50.848;4.334;2023-12-22T07:38:23;10.60;99.90
14475;DHT22;7323;50.848;4.334;2023-12-22T07:40:48;10.60;99.90
14475;DHT22;7323;50.848;4.334;2023-12-22T07:43:15;10.60;99.90
14475;DHT22;7323;50.848;4.334;2023-12-22T07:45:41;10.60;99.90
14475;DHT22;7323;50.848;4.334;2023-12-22T07:48:07;10.60;99.90
14475;DHT22;7323;50.848;4.334;2023-12-22T07:50:33;10.60;99.90
14475;DHT22;7323;50.848;4.334;2023-12-22T07:52:59;10.60;99.90
14475;DHT22;7323;50.848;4.334;2023-12-22T07:55:25;10.60;99.90
14475;DHT22;7323;50.848;4.334;2023-12-22T07:57:50;10.60;99.90
14475;DHT22;7323;50.848;4.334;2023-12-22T08:00:19;10.60;99.90
14475;DHT22;7323;50.848;4.334;2023-12-22T08:02:44;10.50;99.90
14475;DHT22;7323;50.848;4.334;2023-12-22T08:05:10;10.60;99.90
14475;DHT22;7323;50.848;4.334;2023-12-22T08:07:36;10.60;99.90
14475;DHT22;7323;50.848;4.334;2023-12-22T08:10:03;10.60;99.90
14475;DHT22;7323;50.848;4.334;2023-12-22T08:12:29;10.50;99.90
14475;DHT22;7323;50.848;4.334;2023-12-22T08:14:54;10.50;99.90
14475;DHT22;7323;50.848;4.334;2023-12-22T08:17:20;10.50;99.90
14475;DHT22;7323;50.848;4.334;2023-12-22T08:19:46;10.50;99.90
14475;DHT22;7323;50.848;4.334;2023-12-22T08:22:12;10.50;99.90
14475;DHT22;7323;50.848;4.334;2023-12-22T08:24:41;10.50;99.90
14475;DHT22;7323;50.848;4.334;2023-12-22T08:27:10;10.50;99.90
14475;DHT22;7323;50.848;4.334;2023-12-22T08:29:36;10.50;99.90
14475;DHT22;7323;50.848;4.334;2023-12-22T08:32:02;10.50;99.90
14475;DHT22;7323;50.848;4.334;2023-12-22T08:34:28;10.50;99.90
14475;DHT22;7323;50.848;4.334;2023-12-22T08:36:54;10.50;99.90
14475;DHT22;7323;50.848;4.334;2023-12-22T08:39:20;10.40;99.90
14475;DHT22;7323;50.848;4.334;2023-12-22T08:41:46;10.50;99.90
14475;DHT22;7323;50.848;4.334;2023-12-22T08:44:13;10.50;99.90
14475;DHT22;7323;50.848;4.334;2023-12-22T08:46:41;10.50;99.90
14475;DHT22;7323;50.848;4.334;2023-12-22T08:49:07;10.50;99.90
14475;DHT22;7323;50.848;4.334;2023-12-22T08:51:33;10.60;99.90
14475;DHT22;7323;50.848;4.334;2023-12-22T08:53:59;10.50;99.90
14475;DHT22;7323;50.848;4.334;2023-12-22T08:56:25;10.60;99.90
14475;DHT22;7323;50.848;4.334;2023-12-22T08:58:52;10.60;99.90
14475;DHT22;7323;50.848;4.334;2023-12-22T09:01:20;10.70;99.90
14475;DHT22;7323;50.848;4.334;2023-12-22T09:04:00;10.70;99.90
14475;DHT22;7323;50.848;4.334;2023-12-22T09:06:27;10.70;99.90
14475;DHT22;7323;50.848;4.334;2023-12-22T09:08:53;10.80;99.90
14475;DHT22;7323;50.848;4.334;2023-12-22T09:11:21;10.80;99.90
14475;DHT22;7323;50.848;4.334;2023-12-22T09:13:47;10.80;99.90
14475;DHT22;7323;50.848;4.334;2023-12-22T09:16:13;10.90;99.90
14475;DHT22;7323;50.848;4.334;2023-12-22T09:18:41;10.90;99.90
14475;DHT22;7323;50.848;4.334;2023-12-22T09:21:08;11.00;99.90
14475;DHT22;7323;50.848;4.334;2023-12-22T09:23:33;11.00;99.90
14475;DHT22;7323;50.848;4.334;2023-12-22T09:25:59;11.00;99.90
14475;DHT22;7323;50.848;4.334;2023-12-22T09:28:26;11.10;99.90
14475;DHT22;7323;50.848;4.334;2023-12-22T09:30:51;11.10;99.90
14475;DHT22;7323;50.848;4.334;2023-12-22T09:33:18;11.20;99.90
14475;DHT22;7323;50.848;4.334;2023-12-22T09:35:44;11.20;99.90
14475;DHT22;7323;50.848;4.334;2023-12-22T09:38:11;11.20;99.90
14475;DHT22;7323;50.848;4.334;2023-12-22T09:40:38;11.20;99.90
14475;DHT22;7323;50.848;4.334;2023-12-22T09:43:06;11.20;99.90
14475;DHT22;7323;50.848;4.334;2023-12-22T09:45:36;11.20;99.90
14475;DHT22;7323;50.848;4.334;2023-12-22T09:48:05;11.20;99.90
14475;DHT22;7323;50.848;4.334;2023-12-22T09:50:32;11.30;99.90
14475;DHT22;7323;50.848;4.334;2023-12-22T09:53:00;11.30;99.90
14475;DHT22;7323;50.848;4.334;2023-12-22T09:55:27;11.40;99.90
14475;DHT22;7323;50.848;4.334;2023-12-22T09:57:54;11.40;99.90
14475;DHT22;7323;50.848;4.334;2023-12-22T10:00:21;11.30;99.90
14475;DHT22;7323;50.848;4.334;2023-12-22T10:02:48;11.20;99.90
14475;DHT22;7323;50.848;4.334;2023-12-22T10:05:14;11.30;99.90
14475;DHT22;7323;50.848;4.334;2023-12-22T10:07:41;11.40;99.90
14475;DHT22;7323;50.848;4.334;2023-12-22T10:10:10;11.30;99.90
14475;DHT22;7323;50.848;4.334;2023-12-22T10:12:38;11.30;99.90
14475;DHT22;7323;50.848;4.334;2023-12-22T10:15:05;11.30;99.90
14475;DHT22;7323;50.848;4.334;2023-12-22T10:17:32;11.40;99.90
14475;DHT22;7323;50.848;4.334;2023-12-22T10:19:59;11.50;99.90
14475;DHT22;7323;50.848;4.334;2023-12-22T10:22:25;11.50;99.90
14475;DHT22;7323;50.848;4.334;2023-12-22T10:24:51;11.50;99.90
14475;DHT22;7323;50.848;4.334;2023-12-22T10:27:17;11.50;99.90
14475;DHT22;7323;50.848;4.334;2023-12-22T10:29:54;11.50;99.90
14475;DHT22;7323;50.848;4.334;2023-12-22T10:32:22;11.40;99.90
14475;DHT22;7323;50.848;4.334;2023-12-22T10:34:48;11.40;99.90
14475;DHT22;7323;50.848;4.334;2023-12-22T10:37:14;11.30;99.90
14475;DHT22;7323;50.848;4.334;2023-12-22T10:39:40;11.30;99.90
14475;DHT22;7323;50.848;4.334;2023-12-22T10:42:07;11.30;99.90
14475;DHT22;7323;50.848;4.334;2023-12-22T10:44:33;11.30;99.90
14475;DHT22;7323;50.848;4.334;2023-12-22T10:47:00;11.30;99.90
14475;DHT22;7323;50.848;4.334;2023-12-22T10:49:26;11.30;99.90
14475;DHT22;7323;50.848;4.334;2023-12-22T10:51:52;11.30;99.90
14475;DHT22;7323;50.848;4.334;2023-12-22T10:54:18;11.30;99.90
14475;DHT22;7323;50.848;4.334;2023-12-22T10:56:45;11.30;99.90
14475;DHT22;7323;50.848;4.334;2023-12-22T10:59:11;11.20;99.90
14475;DHT22;7323;50.848;4.334;2023-12-22T11:01:37;11.20;99.90
14475;DHT22;7323;50.848;4.334;2023-12-22T11:04:07;11.10;99.90
14475;DHT22;7323;50.848;4.334;2023-12-22T11:06:37;11.10;99.90
14475;DHT22;7323;50.848;4.334;2023-12-22T11:09:07;11.10;99.90
14475;DHT22;7323;50.848;4.334;2023-12-22T11:11:35;11.10;99.90
14475;DHT22;7323;50.848;4.334;2023-12-22T11:14:02;11.10;99.90
14475;DHT22;7323;50.848;4.334;2023-12-22T11:16:30;11.10;99.90
14475;DHT22;7323;50.848;4.334;2023-12-22T11:18:56;11.10;99.90
14475;DHT22;7323;50.848;4.334;2023-12-22T11:21:25;11.20;99.90
14475;DHT22;7323;50.848;4.334;2023-12-22T11:23:53;11.20;99.90
14475;DHT22;7323;50.848;4.334;2023-12-22T11:26:21;11.30;99.90
14475;DHT22;7323;50.848;4.334;2023-12-22T11:28:52;11.30;99.90
14475;DHT22;7323;50.848;4.334;2023-12-22T11:31:18;11.30;99.90
14475;DHT22;7323;50.848;4.334;2023-12-22T11:33:48;11.30;99.90
14475;DHT22;7323;50.848;4.334;2023-12-22T11:36:15;11.30;99.90
14475;DHT22;7323;50.848;4.334;2023-12-22T11:38:42;11.40;99.90
14475;DHT22;7323;50.848;4.334;2023-12-22T11:41:16;11.40;99.90
14475;DHT22;7323;50.848;4.334;2023-12-22T11:43:43;11.50;99.90
14475;DHT22;7323;50.848;4.334;2023-12-22T11:46:09;11.50;99.90
14475;DHT22;7323;50.848;4.334;2023-12-22T11:48:35;11.50;99.90
14475;DHT22;7323;50.848;4.334;2023-12-22T11:51:01;11.60;99.90
14475;DHT22;7323;50.848;4.334;2023-12-22T11:53:30;11.60;99.90
14475;DHT22;7323;50.848;4.334;2023-12-22T11:56:05;11.70;99.90
14475;DHT22;7323;50.848;4.334;2023-12-22T11:58:41;11.70;99.90
14475;DHT22;7323;50.848;4.334;2023-12-22T12:01:13;11.70;99.90
14475;DHT22;7323;50.848;4.334;2023-12-22T12:04:02;11.80;99.90
14475;DHT22;7323;50.848;4.334;2023-12-22T12:06:31;11.80;99.90
14475;DHT22;7323;50.848;4.334;2023-12-22T12:09:01;11.80;99.90
14475;DHT22;7323;50.848;4.334;2023-12-22T12:14:28;11.90;99.90
14475;DHT22;7323;50.848;4.334;2023-12-22T12:17:03;11.90;99.90
14475;DHT22;7323;50.848;4.334;2023-12-22T12:19:32;12.00;99.90
14475;DHT22;7323;50.848;4.334;2023-12-22T12:21:58;12.00;99.90
14475;DHT22;7323;50.848;4.334;2023-12-22T12:24:25;12.00;99.90
14475;DHT22;7323;50.848;4.334;2023-12-22T12:26:51;12.00;99.90
14475;DHT22;7323;50.848;4.334;2023-12-22T12:29:17;12.00;99.90
14475;DHT22;7323;50.848;4.334;2023-12-22T12:31:43;12.00;99.90
14475;DHT22;7323;50.848;4.334;2023-12-22T12:34:12;12.00;99.90
14475;DHT22;7323;50.848;4.334;2023-12-22T12:36:40;12.00;99.90
14475;DHT22;7323;50.848;4.334;2023-12-22T12:39:07;12.00;99.90
14475;DHT22;7323;50.848;4.334;2023-12-22T12:41:42;12.00;99.90
14475;DHT22;7323;50.848;4.334;2023-12-22T12:44:09;12.00;99.90
14475;DHT22;7323;50.848;4.334;2023-12-22T12:46:38;12.00;99.90
14475;DHT22;7323;50.848;4.334;2023-12-22T12:49:05;11.90;99.90
14475;DHT22;7323;50.848;4.334;2023-12-22T12:51:38;11.90;99.90
14475;DHT22;7323;50.848;4.334;2023-12-22T12:54:08;11.90;99.90
14475;DHT22;7323;50.848;4.334;2023-12-22T12:56:41;11.90;99.90
14475;DHT22;7323;50.848;4.334;2023-12-22T12:59:11;11.80;99.90
14475;DHT22;7323;50.848;4.334;2023-12-22T13:01:45;11.80;99.90
14475;DHT22;7323;50.848;4.334;2023-12-22T13:04:11;11.80;99.90
14475;DHT22;7323;50.848;4.334;2023-12-22T13:06:51;11.80;99.90
14475;DHT22;7323;50.848;4.334;2023-12-22T13:09:18;11.80;99.90
14475;DHT22;7323;50.848;4.334;2023-12-22T13:11:45;11.70;99.90
14475;DHT22;7323;50.848;4.334;2023-12-22T13:14:13;11.70;99.90
14475;DHT22;7323;50.848;4.334;2023-12-22T13:16:47;11.70;99.90
14475;DHT22;7323;50.848;4.334;2023-12-22T13:19:13;11.70;99.90
14475;DHT22;7323;50.848;4.334;2023-12-22T13:21:39;11.80;99.90
14475;DHT22;7323;50.848;4.334;2023-12-22T13:24:12;11.80;99.90
14475;DHT22;7323;50.848;4.334;2023-12-22T13:26:39;11.80;99.90
14475;DHT22;7323;50.848;4.334;2023-12-22T13:29:06;11.90;99.90
14475;DHT22;7323;50.848;4.334;2023-12-22T13:31:33;11.90;99.90
14475;DHT22;7323;50.848;4.334;2023-12-22T13:33:59;12.00;99.90
14475;DHT22;7323;50.848;4.334;2023-12-22T13:36:25;11.90;99.90
14475;DHT22;7323;50.848;4.334;2023-12-22T13:38:52;11.90;99.90
14475;DHT22;7323;50.848;4.334;2023-12-22T13:41:20;11.90;99.90
14475;DHT22;7323;50.848;4.334;2023-12-22T13:43:45;12.00;99.90
14475;DHT22;7323;50.848;4.334;2023-12-22T13:46:13;12.00;99.90
14475;DHT22;7323;50.848;4.334;2023-12-22T13:48:40;12.00;99.90
14475;DHT22;7323;50.848;4.334;2023-12-22T13:51:06;12.00;99.90
14475;DHT22;7323;50.848;4.334;2023-12-22T13:53:32;12.00;99.90
14475;DHT22;7323;50.848;4.334;2023-12-22T13:56:00;12.00;99.90
14475;DHT22;7323;50.848;4.334;2023-12-22T13:58:26;12.00;99.90
14475;DHT22;7323;50.848;4.334;2023-12-22T14:00:53;11.90;99.90
14475;DHT22;7323;50.848;4.334;2023-12-22T14:03:20;11.90;99.90
14475;DHT22;7323;50.848;4.334;2023-12-22T14:05:48;11.90;99.90
14475;DHT22;7323;50.848;4.334;2023-12-22T14:08:15;11.90;99.90
14475;DHT22;7323;50.848;4.334;2023-12-22T14:10:49;11.80;99.90
14475;DHT22;7323;50.848;4.334;2023-12-22T14:13:18;11.80;99.90
14475;DHT22;7323;50.848;4.334;2023-12-22T14:15:44;11.90;99.90
14475;DHT22;7323;50.848;4.334;2023-12-22T14:18:10;11.90;99.90
14475;DHT22;7323;50.848;4.334;2023-12-22T14:20:36;11.80;99.90
14475;DHT22;7323;50.848;4.334;2023-12-22T14:23:02;11.80;99.90
14475;DHT22;7323;50.848;4.334;2023-12-22T14:25:29;11.80;99.90
14475;DHT22;7323;50.848;4.334;2023-12-22T14:27:56;11.80;99.90
14475;DHT22;7323;50.848;4.334;2023-12-22T14:30:23;11.90;99.90
14475;DHT22;7323;50.848;4.334;2023-12-22T14:32:49;11.90;99.90
14475;DHT22;7323;50.848;4.334;2023-12-22T14:35:16;12.00;99.90
14475;DHT22;7323;50.848;4.334;2023-12-22T14:37:41;12.00;99.90
14475;DHT22;7323;50.848;4.334;2023-12-22T14:40:10;12.00;99.90
14475;DHT22;7323;50.848;4.334;2023-12-22T14:42:36;12.00;99.90
14475;DHT22;7323;50.848;4.334;2023-12-22T14:45:02;12.10;99.90
14475;DHT22;7323;50.848;4.334;2023-12-22T14:47:28;12.10;99.90
14475;DHT22;7323;50.848;4.334;2023-12-22T14:49:54;12.10;99.90
14475;DHT22;7323;50.848;4.334;2023-12-22T14:52:20;12.10;99.90
14475;DHT22;7323;50.848;4.334;2023-12-22T14:54:46;12.10;99.90
14475;DHT22;7323;50.848;4.334;2023-12-22T14:57:12;12.10;99.90
14475;DHT22;7323;50.848;4.334;2023-12-22T14:59:37;12.10;99.90
14475;DHT22;7323;50.848;4.334;2023-12-22T15:02:03;12.10;99.90
14475;DHT22;7323;50.848;4.334;2023-12-22T15:04:31;12.10;99.10
14475;DHT22;7323;50.848;4.334;2023-12-22T15:06:58;12.10;99.90
14475;DHT22;7323;50.848;4.334;2023-12-22T15:09:24;12.10;98.10
14475;DHT22;7323;50.848;4.334;2023-12-22T15:11:50;12.10;98.80
14475;DHT22;7323;50.848;4.334;2023-12-22T15:14:16;12.20;98.30
14475;DHT22;7323;50.848;4.334;2023-12-22T15:16:42;12.20;97.40
14475;DHT22;7323;50.848;4.334;2023-12-22T15:19:14;12.20;96.80
14475;DHT22;7323;50.848;4.334;2023-12-22T15:21:39;12.20;96.50
14475;DHT22;7323;50.848;4.334;2023-12-22T15:24:06;12.20;97.10
14475;DHT22;7323;50.848;4.334;2023-12-22T15:26:33;12.20;95.40
14475;DHT22;7323;50.848;4.334;2023-12-22T15:29:00;12.20;96.20
14475;DHT22;7323;50.848;4.334;2023-12-22T15:31:25;12.30;95.00
14475;DHT22;7323;50.848;4.334;2023-12-22T15:33:51;12.30;94.70
14475;DHT22;7323;50.848;4.334;2023-12-22T15:36:20;12.30;95.10
14475;DHT22;7323;50.848;4.334;2023-12-22T15:38:48;12.20;95.40
14475;DHT22;7323;50.848;4.334;2023-12-22T15:41:14;12.20;95.30
14475;DHT22;7323;50.848;4.334;2023-12-22T15:43:41;12.20;95.40
14475;DHT22;7323;50.848;4.334;2023-12-22T15:46:07;12.30;94.70
14475;DHT22;7323;50.848;4.334;2023-12-22T15:48:35;12.30;93.80
14475;DHT22;7323;50.848;4.334;2023-12-22T15:51:09;12.30;93.30